sensor_id;sensor_type;location;lat;lon;timestamp;pressure;altitude;pressure_sealevel;temperature;humidity
37634;BME280;32048;49.902;22.508;2022-12-18T00:03:46;99939.34;;;-5.45;100.00
37634;BME280;32048;49.902;22.508;2022-12-18T00:06:14;99947.09;;;-5.45;100.00
37634;BME280;32048;49.902;22.508;2022-12-18T00:08:42;99950.53;;;-5.44;100.00
37634;BME280;32048;49.902;22.508;2022-12-18T00:11:12;99963.44;;;-5.43;100.00
37634;BME280;32048;49.902;22.508;2022-12-18T00:13:39;99955.75;;;-5.41;100.00
37634;BME280;32048;49.902;22.508;2022-12-18T00:16:10;99952.25;;;-5.43;100.00
37634;BME280;32048;49.902;22.508;2022-12-18T00:18:38;99969.41;;;-5.44;100.00
37634;BME280;32048;49.902;22.508;2022-12-18T00:21:07;99969.47;;;-5.42;100.00
37634;BME280;32048;49.902;22.508;2022-12-18T00:23:36;99969.47;;;-5.42;100.00
37634;BME280;32048;49.902;22.508;2022-12-18T00:26:14;99972.97;;;-5.40;100.00
37634;BME280;32048;49.902;22.508;2022-12-18T00:28:43;99979.75;;;-5.42;100.00
37634;BME280;32048;49.902;22.508;2022-12-18T00:31:13;99981.50;;;-5.41;100.00
37634;BME280;32048;49.902;22.508;2022-12-18T00:33:40;99986.66;;;-5.41;100.00
37634;BME280;32048;49.902;22.508;2022-12-18T00:36:16;100002.09;;;-5.41;100.00
37634;BME280;32048;49.902;22.508;2022-12-18T00:38:44;100000.28;;;-5.44;100.00
37634;BME280;32048;49.902;22.508;2022-12-18T00:41:14;100003.72;;;-5.43;100.00
37634;BME280;32048;49.902;22.508;2022-12-18T00:44:02;100009.72;;;-5.44;100.00
37634;BME280;32048;49.902;22.508;2022-12-18T00:46:30;100013.22;;;-5.42;100.00
37634;BME280;32048;49.902;22.508;2022-12-18T00:48:57;100016.66;;;-5.41;100.00
37634;BME280;32048;49.902;22.508;2022-12-18T00:51:24;100019.28;;;-5.40;100.00
37634;BME280;32048;49.902;22.508;2022-12-18T00:53:52;100027.09;;;-5.37;100.00
37634;BME280;32048;49.902;22.508;2022-12-18T00:56:19;100027.09;;;-5.37;100.00
37634;BME280;32048;49.902;22.508;2022-12-18T00:58:48;100036.75;;;-5.31;100.00
37634;BME280;32048;49.902;22.508;2022-12-18T01:01:15;100035.84;;;-5.32;100.00
37634;BME280;32048;49.902;22.508;2022-12-18T01:03:42;100040.22;;;-5.29;100.00
37634;BME280;32048;49.902;22.508;2022-12-18T01:06:11;100046.25;;;-5.29;100.00
37634;BME280;32048;49.902;22.508;2022-12-18T01:08:38;100051.50;;;-5.26;100.00
37634;BME280;32048;49.902;22.508;2022-12-18T01:11:24;100057.50;;;-5.25;100.00
37634;BME280;32048;49.902;22.508;2022-12-18T01:13:52;100064.38;;;-5.26;100.00
37634;BME280;32048;49.902;22.508;2022-12-18T01:16:19;100064.31;;;-5.27;100.00
37634;BME280;32048;49.902;22.508;2022-12-18T01:18:46;100063.56;;;-5.25;100.00
37634;BME280;32048;49.902;22.508;2022-12-18T01:21:15;100066.16;;;-5.23;100.00
37634;BME280;32048;49.902;22.508;2022-12-18T01:23:42;100073.09;;;-5.22;100.00
37634;BME280;32048;49.902;22.508;2022-12-18T01:26:14;100080.94;;;-5.17;100.00
37634;BME280;32048;49.902;22.508;2022-12-18T01:28:42;100079.19;;;-5.18;100.00
37634;BME280;32048;49.902;22.508;2022-12-18T01:31:16;100085.19;;;-5.18;100.00
37634;BME280;32048;49.902;22.508;2022-12-18T01:33:44;100084.53;;;-5.12;100.00
37634;BME280;32048;49.902;22.508;2022-12-18T01:36:23;100092.22;;;-5.14;100.00
37634;BME280;32048;49.902;22.508;2022-12-18T01:38:50;100093.97;;;-5.13;100.00
37634;BME280;32048;49.902;22.508;2022-12-18T01:41:22;100100.09;;;-5.09;100.00
37634;BME280;32048;49.902;22.508;2022-12-18T01:43:56;100096.56;;;-5.11;100.00
37634;BME280;32048;49.902;22.508;2022-12-18T01:46:27;100107.88;;;-5.08;100.00
37634;BME280;32048;49.902;22.508;2022-12-18T01:48:57;100100.16;;;-5.08;100.00
37634;BME280;32048;49.902;22.508;2022-12-18T01:51:27;100110.50;;;-5.06;100.00
37634;BME280;32048;49.902;22.508;2022-12-18T01:53:54;100101.06;;;-5.06;100.00
37634;BME280;32048;49.902;22.508;2022-12-18T01:56:22;100113.09;;;-5.05;100.00
37634;BME280;32048;49.902;22.508;2022-12-18T02:01:20;100121.69;;;-5.06;100.00
37634;BME280;32048;49.902;22.508;2022-12-18T02:03:48;100128.47;;;-5.08;100.00
37634;BME280;32048;49.902;22.508;2022-12-18T02:06:33;100116.53;;;-5.06;100.00
37634;BME280;32048;49.902;22.508;2022-12-18T02:09:14;100119.88;;;-5.08;100.00
37634;BME280;32048;49.902;22.508;2022-12-18T02:14:42;100124.72;;;-5.17;100.00
37634;BME280;32048;49.902;22.508;2022-12-18T02:17:21;100131.56;;;-5.18;100.00
37634;BME280;32048;49.902;22.508;2022-12-18T02:19:58;100131.53;;;-5.19;100.00
37634;BME280;32048;49.902;22.508;2022-12-18T02:28:00;100144.25;;;-5.24;100.00
37634;BME280;32048;49.902;22.508;2022-12-18T02:30:31;100138.16;;;-5.26;100.00
37634;BME280;32048;49.902;22.508;2022-12-18T02:33:00;100145.78;;;-5.29;100.00
37634;BME280;32048;49.902;22.508;2022-12-18T02:35:30;100151.75;;;-5.30;100.00
37634;BME280;32048;49.902;22.508;2022-12-18T02:37:58;100158.47;;;-5.35;100.00
37634;BME280;32048;49.902;22.508;2022-12-18T02:40:27;100166.88;;;-5.39;100.00
37634;BME280;32048;49.902;22.508;2022-12-18T02:42:55;100171.25;;;-5.37;100.00
37634;BME280;32048;49.902;22.508;2022-12-18T02:45:22;100174.56;;;-5.41;100.00
37634;BME280;32048;49.902;22.508;2022-12-18T02:47:49;100183.09;;;-5.42;100.00
37634;BME280;32048;49.902;22.508;2022-12-18T02:50:38;100185.56;;;-5.45;100.00
37634;BME280;32048;49.902;22.508;2022-12-18T02:53:51;100188.88;;;-5.49;100.00
37634;BME280;32048;49.902;22.508;2022-12-18T02:56:25;100188.75;;;-5.52;100.00
37634;BME280;32048;49.902;22.508;2022-12-18T02:59:02;100199.75;;;-5.56;100.00
37634;BME280;32048;49.902;22.508;2022-12-18T03:04:22;100197.69;;;-5.67;100.00
37634;BME280;32048;49.902;22.508;2022-12-18T03:06:56;100199.31;;;-5.69;100.00
37634;BME280;32048;49.902;22.508;2022-12-18T03:09:30;100197.44;;;-5.73;100.00
37634;BME280;32048;49.902;22.508;2022-12-18T03:12:26;100205.09;;;-5.74;100.00
37634;BME280;32048;49.902;22.508;2022-12-18T03:14:55;100198.13;;;-5.78;100.00
37634;BME280;32048;49.902;22.508;2022-12-18T03:17:25;100196.28;;;-5.81;100.00
37634;BME280;32048;49.902;22.508;2022-12-18T03:19:56;100202.25;;;-5.82;100.00
37634;BME280;32048;49.902;22.508;2022-12-18T03:22:27;100205.59;;;-5.85;100.00
37634;BME280;32048;49.902;22.508;2022-12-18T03:24:56;100214.19;;;-5.84;100.00
37634;BME280;32048;49.902;22.508;2022-12-18T03:27:25;100223.53;;;-5.86;100.00
37634;BME280;32048;49.902;22.508;2022-12-18T03:30:03;100229.50;;;-5.87;100.00
37634;BME280;32048;49.902;22.508;2022-12-18T03:32:40;100231.25;;;-5.86;100.00
37634;BME280;32048;49.902;22.508;2022-12-18T03:35:09;100237.09;;;-5.90;100.00
37634;BME280;32048;49.902;22.508;2022-12-18T03:37:38;100244.88;;;-5.89;100.00
37634;BME280;32048;49.902;22.508;2022-12-18T03:40:06;100245.81;;;-5.87;100.00
37634;BME280;32048;49.902;22.508;2022-12-18T03:42:49;100252.53;;;-5.90;100.00
37634;BME280;32048;49.902;22.508;2022-12-18T03:45:26;100254.16;;;-5.92;100.00
37634;BME280;32048;49.902;22.508;2022-12-18T03:48:07;100253.38;;;-5.91;100.00
37634;BME280;32048;49.902;22.508;2022-12-18T03:54:01;100264.53;;;-5.91;100.00
37634;BME280;32048;49.902;22.508;2022-12-18T03:56:33;100270.53;;;-5.90;100.00
37634;BME280;32048;49.902;22.508;2022-12-18T03:59:03;100273.06;;;-5.92;100.00
37634;BME280;32048;49.902;22.508;2022-12-18T04:01:38;100279.09;;;-5.91;100.00
37634;BME280;32048;49.902;22.508;2022-12-18T04:04:07;100279.00;;;-5.93;100.00
37634;BME280;32048;49.902;22.508;2022-12-18T04:06:36;100287.59;;;-5.92;100.00
37634;BME280;32048;49.902;22.508;2022-12-18T04:09:04;100288.53;;;-5.90;100.00
37634;BME280;32048;49.902;22.508;2022-12-18T04:11:31;100286.03;;;-5.89;100.00
37634;BME280;32048;49.902;22.508;2022-12-18T04:13:58;100285.16;;;-5.89;100.00
37634;BME280;32048;49.902;22.508;2022-12-18T04:16:26;100290.34;;;-5.88;100.00
37634;BME280;32048;49.902;22.508;2022-12-18T04:18:53;100292.13;;;-5.87;100.00
37634;BME280;32048;49.902;22.508;2022-12-18T04:21:20;100292.06;;;-5.88;100.00
37634;BME280;32048;49.902;22.508;2022-12-18T04:23:48;100299.91;;;-5.85;100.00
37634;BME280;32048;49.902;22.508;2022-12-18T04:26:15;100307.81;;;-5.80;100.00
37634;BME280;32048;49.902;22.508;2022-12-18T04:28:42;100306.97;;;-5.79;100.00
37634;BME280;32048;49.902;22.508;2022-12-18T04:31:09;100305.22;;;-5.80;100.00
37634;BME280;32048;49.902;22.508;2022-12-18T04:33:36;100308.66;;;-5.80;100.00
37634;BME280;32048;49.902;22.508;2022-12-18T04:36:04;100310.22;;;-5.83;100.00
37634;BME280;32048;49.902;22.508;2022-12-18T04:38:31;100306.03;;;-5.81;100.00
37634;BME280;32048;49.902;22.508;2022-12-18T04:40:59;100316.38;;;-5.80;100.00
37634;BME280;32048;49.902;22.508;2022-12-18T04:43:26;100328.31;;;-5.82;100.00
37634;BME280;32048;49.902;22.508;2022-12-18T04:45:53;100337.72;;;-5.82;100.00
37634;BME280;32048;49.902;22.508;2022-12-18T04:48:21;100339.53;;;-5.80;100.00
37634;BME280;32048;49.902;22.508;2022-12-18T04:50:48;100346.50;;;-5.77;100.00
37634;BME280;32048;49.902;22.508;2022-12-18T04:53:15;100350.78;;;-5.78;100.00
37634;BME280;32048;49.902;22.508;2022-12-18T04:55:42;100354.09;;;-5.80;100.00
37634;BME280;32048;49.902;22.508;2022-12-18T04:58:08;100359.34;;;-5.77;100.00
37634;BME280;32048;49.902;22.508;2022-12-18T05:00:36;100362.03;;;-5.74;100.00
37634;BME280;32048;49.902;22.508;2022-12-18T05:03:03;100358.50;;;-5.78;100.00
37634;BME280;32048;49.902;22.508;2022-12-18T05:05:30;100367.00;;;-5.79;100.00
37634;BME280;32048;49.902;22.508;2022-12-18T05:07:57;100370.41;;;-5.80;100.00
37634;BME280;32048;49.902;22.508;2022-12-18T05:10:24;100372.84;;;-5.83;100.00
37634;BME280;32048;49.902;22.508;2022-12-18T05:12:51;100382.94;;;-5.88;100.00
37634;BME280;32048;49.902;22.508;2022-12-18T05:15:31;100386.16;;;-5.93;100.00
37634;BME280;32048;49.902;22.508;2022-12-18T05:17:59;100392.97;;;-5.95;100.00
37634;BME280;32048;49.902;22.508;2022-12-18T05:20:27;100387.56;;;-6.01;100.00
37634;BME280;32048;49.902;22.508;2022-12-18T05:22:55;100389.38;;;-5.99;100.00
37634;BME280;32048;49.902;22.508;2022-12-18T05:25:23;100390.28;;;-5.98;100.00
37634;BME280;32048;49.902;22.508;2022-12-18T05:27:50;100401.38;;;-5.99;100.00
37634;BME280;32048;49.902;22.508;2022-12-18T05:30:17;100406.59;;;-5.98;100.00
37634;BME280;32048;49.902;22.508;2022-12-18T05:32:44;100422.03;;;-5.98;100.00
37634;BME280;32048;49.902;22.508;2022-12-18T05:35:11;100421.09;;;-6.00;100.00
37634;BME280;32048;49.902;22.508;2022-12-18T05:37:38;100421.84;;;-6.02;100.00
37634;BME280;32048;49.902;22.508;2022-12-18T05:40:09;100416.53;;;-6.06;100.00
37634;BME280;32048;49.902;22.508;2022-12-18T05:42:37;100420.75;;;-6.08;100.00
37634;BME280;32048;49.902;22.508;2022-12-18T05:45:04;100432.53;;;-6.13;100.00
37634;BME280;32048;49.902;22.508;2022-12-18T05:47:32;100431.56;;;-6.16;100.00
37634;BME280;32048;49.902;22.508;2022-12-18T05:49:59;100443.28;;;-6.23;100.00
37634;BME280;32048;49.902;22.508;2022-12-18T05:52:26;100439.69;;;-6.27;100.00
37634;BME280;32048;49.902;22.508;2022-12-18T05:54:53;100450.59;;;-6.32;100.00
37634;BME280;32048;49.902;22.508;2022-12-18T05:57:20;100448.94;;;-6.30;100.00
37634;BME280;32048;49.902;22.508;2022-12-18T05:59:47;100448.03;;;-6.32;100.00
37634;BME280;32048;49.902;22.508;2022-12-18T06:02:14;100453.16;;;-6.32;100.00
37634;BME280;32048;49.902;22.508;2022-12-18T06:04:41;100453.97;;;-6.33;100.00
37634;BME280;32048;49.902;22.508;2022-12-18T06:07:08;100454.84;;;-6.33;100.00
37634;BME280;32048;49.902;22.508;2022-12-18T06:09:35;100464.25;;;-6.33;100.00
37634;BME280;32048;49.902;22.508;2022-12-18T06:12:02;100463.44;;;-6.32;100.00
37634;BME280;32048;49.902;22.508;2022-12-18T06:14:29;100475.47;;;-6.31;100.00
37634;BME280;32048;49.902;22.508;2022-12-18T06:16:56;100479.66;;;-6.33;100.00
37634;BME280;32048;49.902;22.508;2022-12-18T06:19:23;100485.88;;;-6.28;100.00
37634;BME280;32048;49.902;22.508;2022-12-18T06:21:50;100483.25;;;-6.30;100.00
37634;BME280;32048;49.902;22.508;2022-12-18T06:24:18;100491.00;;;-6.28;100.00
37634;BME280;32048;49.902;22.508;2022-12-18T06:26:44;100497.09;;;-6.26;100.00
37634;BME280;32048;49.902;22.508;2022-12-18T06:29:12;100501.38;;;-6.27;100.00
37634;BME280;32048;49.902;22.508;2022-12-18T06:31:38;100503.88;;;-6.28;100.00
37634;BME280;32048;49.902;22.508;2022-12-18T06:34:06;100509.16;;;-6.25;100.00
37634;BME280;32048;49.902;22.508;2022-12-18T06:36:32;100510.16;;;-6.21;100.00
37634;BME280;32048;49.902;22.508;2022-12-18T06:39:00;100515.47;;;-6.18;100.00
37634;BME280;32048;49.902;22.508;2022-12-18T06:41:26;100506.91;;;-6.17;100.00
37634;BME280;32048;49.902;22.508;2022-12-18T06:43:54;100513.09;;;-6.14;100.00
37634;BME280;32048;49.902;22.508;2022-12-18T06:46:25;100513.13;;;-6.12;100.00
37634;BME280;32048;49.902;22.508;2022-12-18T06:48:52;100513.88;;;-6.15;100.00
37634;BME280;32048;49.902;22.508;2022-12-18T06:51:21;100520.78;;;-6.14;100.00
37634;BME280;32048;49.902;22.508;2022-12-18T06:53:48;100521.75;;;-6.12;100.00
37634;BME280;32048;49.902;22.508;2022-12-18T06:56:16;100523.50;;;-6.11;100.00
37634;BME280;32048;49.902;22.508;2022-12-18T06:58:43;100526.88;;;-6.12;100.00
37634;BME280;32048;49.902;22.508;2022-12-18T07:01:11;100540.69;;;-6.10;100.00
37634;BME280;32048;49.902;22.508;2022-12-18T07:03:40;100535.78;;;-6.03;100.00
37634;BME280;32048;49.902;22.508;2022-12-18T07:06:15;100531.41;;;-6.06;100.00
37634;BME280;32048;49.902;22.508;2022-12-18T07:08:43;100528.91;;;-6.04;100.00
37634;BME280;32048;49.902;22.508;2022-12-18T07:11:10;100541.69;;;-6.06;100.00
37634;BME280;32048;49.902;22.508;2022-12-18T07:13:38;100548.72;;;-6.02;100.00
37634;BME280;32048;49.902;22.508;2022-12-18T07:16:17;100552.31;;;-5.98;100.00
37634;BME280;32048;49.902;22.508;2022-12-18T07:18:52;100557.50;;;-5.97;100.00
37634;BME280;32048;49.902;22.508;2022-12-18T07:21:20;100561.78;;;-5.97;100.00
37634;BME280;32048;49.902;22.508;2022-12-18T07:23:49;100562.53;;;-6.00;100.00
37634;BME280;32048;49.902;22.508;2022-12-18T07:26:18;100566.94;;;-5.97;100.00
37634;BME280;32048;49.902;22.508;2022-12-18T07:28:46;100564.34;;;-5.97;100.00
37634;BME280;32048;49.902;22.508;2022-12-18T07:31:18;100569.50;;;-5.97;100.00
37634;BME280;32048;49.902;22.508;2022-12-18T07:33:47;100568.75;;;-5.95;100.00
37634;BME280;32048;49.902;22.508;2022-12-18T07:36:15;100573.19;;;-5.91;100.00
37634;BME280;32048;49.902;22.508;2022-12-18T07:38:42;100575.16;;;-5.85;100.00
37634;BME280;32048;49.902;22.508;2022-12-18T07:41:11;100571.88;;;-5.81;100.00
37634;BME280;32048;49.902;22.508;2022-12-18T07:43:39;100579.06;;;-5.74;100.00
37634;BME280;32048;49.902;22.508;2022-12-18T07:46:08;100584.25;;;-5.72;100.00
37634;BME280;32048;49.902;22.508;2022-12-18T07:48:36;100573.47;;;-5.64;100.00
37634;BME280;32048;49.902;22.508;2022-12-18T07:51:05;100583.22;;;-5.56;100.00
37634;BME280;32048;49.902;22.508;2022-12-18T07:53:33;100584.50;;;-5.47;100.00
37634;BME280;32048;49.902;22.508;2022-12-18T07:56:03;100589.75;;;-5.44;100.00
37634;BME280;32048;49.902;22.508;2022-12-18T07:58:51;100593.41;;;-5.38;100.00
37634;BME280;32048;49.902;22.508;2022-12-18T08:01:18;100599.88;;;-5.27;100.00
37634;BME280;32048;49.902;22.508;2022-12-18T08:03:47;100597.66;;;-5.18;100.00
37634;BME280;32048;49.902;22.508;2022-12-18T08:06:15;100606.47;;;-5.13;100.00
37634;BME280;32048;49.902;22.508;2022-12-18T08:08:42;100594.75;;;-5.06;100.00
37634;BME280;32048;49.902;22.508;2022-12-18T08:11:09;100599.31;;;-4.99;100.00
37634;BME280;32048;49.902;22.508;2022-12-18T08:13:36;100602.31;;;-4.88;100.00
37634;BME280;32048;49.902;22.508;2022-12-18T08:16:07;100604.94;;;-4.87;100.00
37634;BME280;32048;49.902;22.508;2022-12-18T08:18:36;100607.84;;;-4.79;100.00
37634;BME280;32048;49.902;22.508;2022-12-18T08:21:11;100613.28;;;-4.71;100.00
37634;BME280;32048;49.902;22.508;2022-12-18T08:23:39;100615.16;;;-4.67;100.00
37634;BME280;32048;49.902;22.508;2022-12-18T08:26:09;100620.25;;;-4.69;100.00
37634;BME280;32048;49.902;22.508;2022-12-18T08:28:37;100618.63;;;-4.67;100.00
37634;BME280;32048;49.902;22.508;2022-12-18T08:31:04;100623.06;;;-4.63;100.00
37634;BME280;32048;49.902;22.508;2022-12-18T08:33:32;100623.25;;;-4.58;100.00
37634;BME280;32048;49.902;22.508;2022-12-18T08:36:00;100627.25;;;-4.66;100.00
37634;BME280;32048;49.902;22.508;2022-12-18T08:38:27;100631.50;;;-4.67;100.00
37634;BME280;32048;49.902;22.508;2022-12-18T08:41:02;100631.69;;;-4.62;100.00
37634;BME280;32048;49.902;22.508;2022-12-18T08:43:29;100631.13;;;-4.55;100.00
37634;BME280;32048;49.902;22.508;2022-12-18T08:46:14;100624.53;;;-4.47;100.00
37634;BME280;32048;49.902;22.508;2022-12-18T08:48:42;100632.75;;;-4.34;100.00
37634;BME280;32048;49.902;22.508;2022-12-18T08:51:09;100640.44;;;-4.36;100.00
37634;BME280;32048;49.902;22.508;2022-12-18T08:53:37;100636.28;;;-4.32;100.00
37634;BME280;32048;49.902;22.508;2022-12-18T08:56:05;100638.88;;;-4.32;100.00
37634;BME280;32048;49.902;22.508;2022-12-18T08:58:32;100638.72;;;-4.35;100.00
37634;BME280;32048;49.902;22.508;2022-12-18T09:01:03;100645.66;;;-4.34;100.00
37634;BME280;32048;49.902;22.508;2022-12-18T09:03:31;100651.50;;;-4.39;100.00
37634;BME280;32048;49.902;22.508;2022-12-18T09:05:58;100648.94;;;-4.39;100.00
37634;BME280;32048;49.902;22.508;2022-12-18T09:08:26;100648.00;;;-4.41;100.00
37634;BME280;32048;49.902;22.508;2022-12-18T09:10:54;100644.66;;;-4.38;100.00
37634;BME280;32048;49.902;22.508;2022-12-18T09:13:22;100646.59;;;-4.32;100.00
37634;BME280;32048;49.902;22.508;2022-12-18T09:15:51;100640.59;;;-4.31;100.00
37634;BME280;32048;49.902;22.508;2022-12-18T09:18:20;100648.75;;;-4.21;100.00
37634;BME280;32048;49.902;22.508;2022-12-18T09:20:47;100653.06;;;-4.21;100.00
37634;BME280;32048;49.902;22.508;2022-12-18T09:23:14;100650.56;;;-4.18;100.00
37634;BME280;32048;49.902;22.508;2022-12-18T09:25:41;100660.25;;;-4.12;100.00
37634;BME280;32048;49.902;22.508;2022-12-18T09:28:14;100666.13;;;-4.16;100.00
37634;BME280;32048;49.902;22.508;2022-12-18T09:30:44;100669.03;;;-4.07;100.00
37634;BME280;32048;49.902;22.508;2022-12-18T09:33:11;100670.03;;;-4.04;100.00
37634;BME280;32048;49.902;22.508;2022-12-18T09:35:40;100670.19;;;-3.99;100.00
37634;BME280;32048;49.902;22.508;2022-12-18T09:38:11;100670.38;;;-3.94;100.00
37634;BME280;32048;49.902;22.508;2022-12-18T09:40:48;100674.88;;;-3.89;100.00
37634;BME280;32048;49.902;22.508;2022-12-18T09:43:22;100679.16;;;-3.89;100.00
37634;BME280;32048;49.902;22.508;2022-12-18T09:45:55;100673.34;;;-3.84;100.00
37634;BME280;32048;49.902;22.508;2022-12-18T09:48:31;100670.13;;;-3.78;100.00
37634;BME280;32048;49.902;22.508;2022-12-18T09:51:05;100681.56;;;-3.71;100.00
37634;BME280;32048;49.902;22.508;2022-12-18T09:53:38;100682.19;;;-3.77;100.00
37634;BME280;32048;49.902;22.508;2022-12-18T09:56:12;100674.44;;;-3.77;100.00
37634;BME280;32048;49.902;22.508;2022-12-18T09:58:47;100681.38;;;-3.76;100.00
37634;BME280;32048;49.902;22.508;2022-12-18T10:01:19;100675.38;;;-3.75;100.00
37634;BME280;32048;49.902;22.508;2022-12-18T10:03:48;100673.88;;;-3.70;100.00
37634;BME280;32048;49.902;22.508;2022-12-18T10:09:27;100669.91;;;-3.60;100.00
37634;BME280;32048;49.902;22.508;2022-12-18T10:12:21;100675.94;;;-3.60;100.00
37634;BME280;32048;49.902;22.508;2022-12-18T10:14:52;100676.00;;;-3.58;100.00
37634;BME280;32048;49.902;22.508;2022-12-18T10:20:45;100662.72;;;-3.69;100.00
37634;BME280;32048;49.902;22.508;2022-12-18T10:26:05;100665.28;;;-3.69;100.00
37634;BME280;32048;49.902;22.508;2022-12-18T10:28:35;100663.56;;;-3.68;100.00
37634;BME280;32048;49.902;22.508;2022-12-18T10:31:15;100662.88;;;-3.64;100.00
37634;BME280;32048;49.902;22.508;2022-12-18T10:33:43;100670.84;;;-3.58;100.00
37634;BME280;32048;49.902;22.508;2022-12-18T10:36:11;100661.44;;;-3.56;100.00
37634;BME280;32048;49.902;22.508;2022-12-18T10:38:38;100664.22;;;-3.50;100.00
37634;BME280;32048;49.902;22.508;2022-12-18T10:41:23;100671.31;;;-3.44;100.00
37634;BME280;32048;49.902;22.508;2022-12-18T10:44:20;100661.88;;;-3.44;100.00
37634;BME280;32048;49.902;22.508;2022-12-18T10:46:50;100663.59;;;-3.44;100.00
37634;BME280;32048;49.902;22.508;2022-12-18T10:51:49;100677.22;;;-3.48;100.00
37634;BME280;32048;49.902;22.508;2022-12-18T10:54:21;100674.78;;;-3.44;100.00
37634;BME280;32048;49.902;22.508;2022-12-18T10:56:49;100681.91;;;-3.37;100.00
37634;BME280;32048;49.902;22.508;2022-12-18T10:59:17;100680.16;;;-3.38;100.00
37634;BME280;32048;49.902;22.508;2022-12-18T11:01:56;100679.34;;;-3.37;99.82
37634;BME280;32048;49.902;22.508;2022-12-18T11:04:27;100673.22;;;-3.39;99.92
37634;BME280;32048;49.902;22.508;2022-12-18T11:07:03;100674.00;;;-3.41;99.91
37634;BME280;32048;49.902;22.508;2022-12-18T11:09:40;100674.47;;;-3.53;100.00
37634;BME280;32048;49.902;22.508;2022-12-18T11:14:47;100682.16;;;-3.55;100.00
37634;BME280;32048;49.902;22.508;2022-12-18T11:17:35;100678.81;;;-3.52;100.00
37634;BME280;32048;49.902;22.508;2022-12-18T11:22:33;100679.56;;;-3.55;100.00
37634;BME280;32048;49.902;22.508;2022-12-18T11:25:06;100677.97;;;-3.51;100.00
37634;BME280;32048;49.902;22.508;2022-12-18T11:28:01;100681.41;;;-3.52;100.00
37634;BME280;32048;49.902;22.508;2022-12-18T11:30:35;100676.41;;;-3.47;100.00
37634;BME280;32048;49.902;22.508;2022-12-18T11:33:06;100680.66;;;-3.48;100.00
37634;BME280;32048;49.902;22.508;2022-12-18T11:35:59;100681.44;;;-3.50;100.00
37634;BME280;32048;49.902;22.508;2022-12-18T11:38:32;100681.41;;;-3.52;100.00
37634;BME280;32048;49.902;22.508;2022-12-18T11:41:15;100685.78;;;-3.49;100.00
37634;BME280;32048;49.902;22.508;2022-12-18T11:43:54;100687.63;;;-3.45;100.00
37634;BME280;32048;49.902;22.508;2022-12-18T11:49:21;100685.19;;;-3.42;100.00
37634;BME280;32048;49.902;22.508;2022-12-18T11:54:35;100685.03;;;-3.47;99.03
37634;BME280;32048;49.902;22.508;2022-12-18T11:57:25;100681.41;;;-3.52;99.49
37634;BME280;32048;49.902;22.508;2022-12-18T12:00:18;100684.63;;;-3.58;98.40
37634;BME280;32048;49.902;22.508;2022-12-18T12:05:28;100682.69;;;-3.63;99.30
37634;BME280;32048;49.902;22.508;2022-12-18T12:16:25;100681.88;;;-3.62;100.00
37634;BME280;32048;49.902;22.508;2022-12-18T12:21:47;100684.53;;;-3.61;100.00
37634;BME280;32048;49.902;22.508;2022-12-18T12:29:58;100691.94;;;-3.70;99.87
37634;BME280;32048;49.902;22.508;2022-12-18T12:38:25;100690.78;;;-4.01;100.00
37634;BME280;32048;49.902;22.508;2022-12-18T12:40:59;100704.50;;;-4.02;100.00
37634;BME280;32048;49.902;22.508;2022-12-18T12:43:44;100708.03;;;-4.00;100.00
37634;BME280;32048;49.902;22.508;2022-12-18T12:46:19;100714.06;;;-3.99;100.00
37634;BME280;32048;49.902;22.508;2022-12-18T12:48:52;100710.41;;;-4.06;100.00
37634;BME280;32048;49.902;22.508;2022-12-18T12:51:22;100725.91;;;-4.04;100.00
37634;BME280;32048;49.902;22.508;2022-12-18T12:53:51;100726.75;;;-4.05;100.00
37634;BME280;32048;49.902;22.508;2022-12-18T12:56:20;100742.22;;;-4.05;100.00
37634;BME280;32048;49.902;22.508;2022-12-18T12:59:24;100736.22;;;-4.04;100.00
37634;BME280;32048;49.902;22.508;2022-12-18T13:02:10;100748.44;;;-4.00;100.00
37634;BME280;32048;49.902;22.508;2022-12-18T13:07:18;100748.34;;;-4.03;100.00
37634;BME280;32048;49.902;22.508;2022-12-18T13:12:57;100758.66;;;-4.03;100.00
37634;BME280;32048;49.902;22.508;2022-12-18T13:18:13;100766.22;;;-4.08;100.00
37634;BME280;32048;49.902;22.508;2022-12-18T13:20:47;100773.00;;;-4.10;100.00
37634;BME280;32048;49.902;22.508;2022-12-18T13:31:01;100778.06;;;-4.34;100.00
37634;BME280;32048;49.902;22.508;2022-12-18T13:38:44;100792.59;;;-4.36;100.00
37634;BME280;32048;49.902;22.508;2022-12-18T13:43:47;100804.84;;;-4.51;100.00
37634;BME280;32048;49.902;22.508;2022-12-18T13:51:21;100824.41;;;-4.56;100.00
37634;BME280;32048;49.902;22.508;2022-12-18T13:54:19;100827.66;;;-4.61;100.00
37634;BME280;32048;49.902;22.508;2022-12-18T13:56:48;100836.22;;;-4.62;100.00
37634;BME280;32048;49.902;22.508;2022-12-18T14:04:28;100847.03;;;-4.70;100.00
37634;BME280;32048;49.902;22.508;2022-12-18T14:07:01;100857.06;;;-4.76;100.00
37634;BME280;32048;49.902;22.508;2022-12-18T14:09:33;100863.16;;;-4.74;100.00
37634;BME280;32048;49.902;22.508;2022-12-18T14:12:03;100865.63;;;-4.77;100.00
37634;BME280;32048;49.902;22.508;2022-12-18T14:14:50;100864.53;;;-4.83;100.00
37634;BME280;32048;49.902;22.508;2022-12-18T14:17:22;100858.56;;;-4.82;100.00
37634;BME280;32048;49.902;22.508;2022-12-18T14:19:50;100866.97;;;-4.86;100.00
37634;BME280;32048;49.902;22.508;2022-12-18T14:22:24;100865.91;;;-4.91;100.00
37634;BME280;32048;49.902;22.508;2022-12-18T14:27:45;100877.66;;;-4.96;100.00
37634;BME280;32048;49.902;22.508;2022-12-18T14:30:31;100888.72;;;-4.98;100.00
37634;BME280;32048;49.902;22.508;2022-12-18T14:33:26;100896.25;;;-5.03;100.00
37634;BME280;32048;49.902;22.508;2022-12-18T14:35:57;100887.66;;;-5.04;100.00